sensor_id;sensor_type;location;lat;lon;timestamp;P1;durP1;ratioP1;P2;durP2;ratioP2
59042;SDS011;44826;51.596;5.624;2023-06-22T00:00:48;5.10;;;2.83;;
59042;SDS011;44826;51.596;5.624;2023-06-22T00:03:14;4.95;;;3.20;;
59042;SDS011;44826;51.596;5.624;2023-06-22T00:05:40;4.50;;;2.97;;
59042;SDS011;44826;51.596;5.624;2023-06-22T00:08:05;4.07;;;3.25;;
59042;SDS011;44826;51.596;5.624;2023-06-22T00:10:31;4.93;;;3.30;;
59042;SDS011;44826;51.596;5.624;2023-06-22T00:12:56;6.43;;;3.72;;
59042;SDS011;44826;51.596;5.624;2023-06-22T00:15:22;4.60;;;3.25;;
59042;SDS011;44826;51.596;5.624;2023-06-22T00:17:47;5.15;;;3.25;;
59042;SDS011;44826;51.596;5.624;2023-06-22T00:20:12;4.05;;;3.13;;
59042;SDS011;44826;51.596;5.624;2023-06-22T00:22:39;4.97;;;3.08;;
59042;SDS011;44826;51.596;5.624;2023-06-22T00:25:06;5.20;;;3.40;;
59042;SDS011;44826;51.596;5.624;2023-06-22T00:27:31;4.82;;;3.40;;
59042;SDS011;44826;51.596;5.624;2023-06-22T00:29:57;6.45;;;3.60;;
59042;SDS011;44826;51.596;5.624;2023-06-22T00:32:22;5.25;;;3.58;;
59042;SDS011;44826;51.596;5.624;2023-06-22T00:34:47;6.15;;;3.38;;
59042;SDS011;44826;51.596;5.624;2023-06-22T00:37:13;4.70;;;3.53;;
59042;SDS011;44826;51.596;5.624;2023-06-22T00:39:38;5.88;;;3.80;;
59042;SDS011;44826;51.596;5.624;2023-06-22T00:42:03;7.00;;;3.60;;
59042;SDS011;44826;51.596;5.624;2023-06-22T00:44:29;4.78;;;3.72;;
59042;SDS011;44826;51.596;5.624;2023-06-22T00:46:54;7.38;;;3.80;;
59042;SDS011;44826;51.596;5.624;2023-06-22T00:49:20;5.88;;;3.80;;
59042;SDS011;44826;51.596;5.624;2023-06-22T00:51:45;5.53;;;3.90;;
59042;SDS011;44826;51.596;5.624;2023-06-22T00:54:12;5.63;;;4.28;;
59042;SDS011;44826;51.596;5.624;2023-06-22T00:56:39;5.55;;;4.20;;
59042;SDS011;44826;51.596;5.624;2023-06-22T00:59:06;5.45;;;4.10;;
59042;SDS011;44826;51.596;5.624;2023-06-22T01:01:31;7.63;;;4.47;;
59042;SDS011;44826;51.596;5.624;2023-06-22T01:03:56;7.68;;;4.22;;
59042;SDS011;44826;51.596;5.624;2023-06-22T01:06:26;5.82;;;3.92;;
59042;SDS011;44826;51.596;5.624;2023-06-22T01:09:06;4.25;;;3.28;;
59042;SDS011;44826;51.596;5.624;2023-06-22T01:11:41;4.40;;;3.78;;
59042;SDS011;44826;51.596;5.624;2023-06-22T01:14:24;5.00;;;3.72;;
59042;SDS011;44826;51.596;5.624;2023-06-22T01:17:10;5.35;;;4.10;;
59042;SDS011;44826;51.596;5.624;2023-06-22T01:19:50;6.45;;;4.13;;
59042;SDS011;44826;51.596;5.624;2023-06-22T01:22:22;5.80;;;4.22;;
59042;SDS011;44826;51.596;5.624;2023-06-22T01:30:32;5.07;;;4.07;;
59042;SDS011;44826;51.596;5.624;2023-06-22T01:33:00;5.35;;;4.15;;
59042;SDS011;44826;51.596;5.624;2023-06-22T01:35:27;6.95;;;4.55;;
59042;SDS011;44826;51.596;5.624;2023-06-22T01:37:53;6.82;;;4.50;;
59042;SDS011;44826;51.596;5.624;2023-06-22T01:40:20;6.10;;;4.57;;
59042;SDS011;44826;51.596;5.624;2023-06-22T01:42:46;7.07;;;4.40;;
59042;SDS011;44826;51.596;5.624;2023-06-22T01:45:13;6.72;;;4.85;;
59042;SDS011;44826;51.596;5.624;2023-06-22T01:47:39;6.00;;;5.03;;
59042;SDS011;44826;51.596;5.624;2023-06-22T01:50:06;7.82;;;5.38;;
59042;SDS011;44826;51.596;5.624;2023-06-22T01:52:31;9.13;;;4.95;;
59042;SDS011;44826;51.596;5.624;2023-06-22T01:54:59;7.65;;;4.97;;
59042;SDS011;44826;51.596;5.624;2023-06-22T01:57:24;7.85;;;5.05;;
59042;SDS011;44826;51.596;5.624;2023-06-22T01:59:59;7.85;;;5.35;;
59042;SDS011;44826;51.596;5.624;2023-06-22T02:02:39;6.32;;;5.03;;
59042;SDS011;44826;51.596;5.624;2023-06-22T02:05:10;6.60;;;5.22;;
59042;SDS011;44826;51.596;5.624;2023-06-22T02:07:47;9.02;;;5.15;;
59042;SDS011;44826;51.596;5.624;2023-06-22T02:10:18;8.73;;;5.65;;
59042;SDS011;44826;51.596;5.624;2023-06-22T02:12:45;7.20;;;5.22;;
59042;SDS011;44826;51.596;5.624;2023-06-22T02:15:12;6.32;;;4.85;;
59042;SDS011;44826;51.596;5.624;2023-06-22T02:17:39;7.95;;;5.18;;
59042;SDS011;44826;51.596;5.624;2023-06-22T02:20:11;8.43;;;5.65;;
59042;SDS011;44826;51.596;5.624;2023-06-22T02:22:40;6.20;;;4.97;;
59042;SDS011;44826;51.596;5.624;2023-06-22T02:25:06;6.57;;;5.45;;
59042;SDS011;44826;51.596;5.624;2023-06-22T02:27:31;8.73;;;6.20;;
59042;SDS011;44826;51.596;5.624;2023-06-22T02:29:57;8.98;;;6.32;;
59042;SDS011;44826;51.596;5.624;2023-06-22T02:32:22;8.32;;;5.72;;
59042;SDS011;44826;51.596;5.624;2023-06-22T02:34:47;9.13;;;5.80;;
59042;SDS011;44826;51.596;5.624;2023-06-22T02:37:13;7.00;;;5.80;;
59042;SDS011;44826;51.596;5.624;2023-06-22T02:39:42;9.30;;;6.68;;
59042;SDS011;44826;51.596;5.624;2023-06-22T02:42:07;8.55;;;6.97;;
59042;SDS011;44826;51.596;5.624;2023-06-22T02:44:32;8.75;;;6.68;;
59042;SDS011;44826;51.596;5.624;2023-06-22T02:46:58;8.48;;;6.75;;
59042;SDS011;44826;51.596;5.624;2023-06-22T02:49:23;10.43;;;7.25;;
59042;SDS011;44826;51.596;5.624;2023-06-22T02:51:49;9.73;;;6.60;;
59042;SDS011;44826;51.596;5.624;2023-06-22T02:54:14;7.55;;;6.47;;
59042;SDS011;44826;51.596;5.624;2023-06-22T02:56:39;9.20;;;6.82;;
59042;SDS011;44826;51.596;5.624;2023-06-22T02:59:05;7.85;;;6.88;;
59042;SDS011;44826;51.596;5.624;2023-06-22T03:01:31;8.68;;;6.60;;
59042;SDS011;44826;51.596;5.624;2023-06-22T03:04:02;9.32;;;6.93;;
59042;SDS011;44826;51.596;5.624;2023-06-22T03:06:28;8.40;;;6.88;;
59042;SDS011;44826;51.596;5.624;2023-06-22T03:08:58;8.80;;;6.72;;
59042;SDS011;44826;51.596;5.624;2023-06-22T03:11:25;10.40;;;7.45;;
59042;SDS011;44826;51.596;5.624;2023-06-22T03:13:51;9.85;;;7.35;;
59042;SDS011;44826;51.596;5.624;2023-06-22T03:16:17;11.30;;;7.28;;
59042;SDS011;44826;51.596;5.624;2023-06-22T03:18:43;8.85;;;7.07;;
59042;SDS011;44826;51.596;5.624;2023-06-22T03:21:09;8.68;;;7.10;;
59042;SDS011;44826;51.596;5.624;2023-06-22T03:23:34;8.73;;;6.85;;
59042;SDS011;44826;51.596;5.624;2023-06-22T03:25:59;9.88;;;7.03;;
59042;SDS011;44826;51.596;5.624;2023-06-22T03:28:25;9.65;;;7.28;;
59042;SDS011;44826;51.596;5.624;2023-06-22T03:30:50;9.35;;;6.90;;
59042;SDS011;44826;51.596;5.624;2023-06-22T03:33:15;9.70;;;6.90;;
59042;SDS011;44826;51.596;5.624;2023-06-22T03:35:40;9.48;;;7.30;;
59042;SDS011;44826;51.596;5.624;2023-06-22T03:38:06;9.77;;;6.95;;
59042;SDS011;44826;51.596;5.624;2023-06-22T03:40:31;8.27;;;7.25;;
59042;SDS011;44826;51.596;5.624;2023-06-22T03:42:56;8.93;;;6.95;;
59042;SDS011;44826;51.596;5.624;2023-06-22T03:45:21;11.15;;;7.80;;
59042;SDS011;44826;51.596;5.624;2023-06-22T03:47:47;10.27;;;7.43;;
59042;SDS011;44826;51.596;5.624;2023-06-22T03:50:12;8.27;;;6.80;;
59042;SDS011;44826;51.596;5.624;2023-06-22T03:52:38;9.43;;;6.72;;
59042;SDS011;44826;51.596;5.624;2023-06-22T03:55:04;9.45;;;6.88;;
59042;SDS011;44826;51.596;5.624;2023-06-22T03:57:30;8.38;;;6.72;;
59042;SDS011;44826;51.596;5.624;2023-06-22T03:59:55;9.68;;;6.95;;
59042;SDS011;44826;51.596;5.624;2023-06-22T04:02:21;8.15;;;6.95;;
59042;SDS011;44826;51.596;5.624;2023-06-22T04:04:47;9.93;;;6.75;;
59042;SDS011;44826;51.596;5.624;2023-06-22T04:07:12;10.70;;;7.65;;
59042;SDS011;44826;51.596;5.624;2023-06-22T04:09:37;8.30;;;6.57;;
59042;SDS011;44826;51.596;5.624;2023-06-22T04:12:03;9.90;;;6.82;;
59042;SDS011;44826;51.596;5.624;2023-06-22T04:14:28;9.65;;;6.93;;
59042;SDS011;44826;51.596;5.624;2023-06-22T04:16:53;9.20;;;6.80;;
59042;SDS011;44826;51.596;5.624;2023-06-22T04:19:19;10.43;;;6.70;;
59042;SDS011;44826;51.596;5.624;2023-06-22T04:21:44;8.95;;;6.85;;
59042;SDS011;44826;51.596;5.624;2023-06-22T04:24:10;9.35;;;6.70;;
59042;SDS011;44826;51.596;5.624;2023-06-22T04:26:36;11.68;;;6.45;;
59042;SDS011;44826;51.596;5.624;2023-06-22T04:29:06;8.80;;;7.07;;
59042;SDS011;44826;51.596;5.624;2023-06-22T04:31:33;11.23;;;7.07;;
59042;SDS011;44826;51.596;5.624;2023-06-22T04:34:01;9.50;;;7.20;;
59042;SDS011;44826;51.596;5.624;2023-06-22T04:36:35;8.95;;;6.63;;
59042;SDS011;44826;51.596;5.624;2023-06-22T04:39:07;9.73;;;7.25;;
59042;SDS011;44826;51.596;5.624;2023-06-22T04:41:39;9.07;;;6.95;;
59042;SDS011;44826;51.596;5.624;2023-06-22T04:44:08;9.80;;;6.47;;
59042;SDS011;44826;51.596;5.624;2023-06-22T04:46:34;9.95;;;7.07;;
59042;SDS011;44826;51.596;5.624;2023-06-22T04:49:03;9.52;;;7.30;;
59042;SDS011;44826;51.596;5.624;2023-06-22T04:51:35;9.15;;;7.05;;
59042;SDS011;44826;51.596;5.624;2023-06-22T04:54:09;10.23;;;6.68;;
59042;SDS011;44826;51.596;5.624;2023-06-22T04:56:35;10.00;;;7.45;;
59042;SDS011;44826;51.596;5.624;2023-06-22T04:59:01;9.15;;;7.15;;
59042;SDS011;44826;51.596;5.624;2023-06-22T05:01:28;10.38;;;7.55;;
59042;SDS011;44826;51.596;5.624;2023-06-22T05:03:53;10.00;;;7.70;;
59042;SDS011;44826;51.596;5.624;2023-06-22T05:06:22;11.48;;;7.93;;
59042;SDS011;44826;51.596;5.624;2023-06-22T05:08:50;9.77;;;8.10;;
59042;SDS011;44826;51.596;5.624;2023-06-22T05:11:23;11.13;;;8.50;;
59042;SDS011;44826;51.596;5.624;2023-06-22T05:13:49;12.30;;;8.75;;
59042;SDS011;44826;51.596;5.624;2023-06-22T05:16:15;11.27;;;8.63;;
59042;SDS011;44826;51.596;5.624;2023-06-22T05:18:40;12.90;;;9.50;;
59042;SDS011;44826;51.596;5.624;2023-06-22T05:21:06;12.68;;;10.05;;
59042;SDS011;44826;51.596;5.624;2023-06-22T05:23:32;12.27;;;9.80;;
59042;SDS011;44826;51.596;5.624;2023-06-22T05:25:57;13.77;;;10.20;;
59042;SDS011;44826;51.596;5.624;2023-06-22T05:28:22;11.65;;;9.57;;
59042;SDS011;44826;51.596;5.624;2023-06-22T05:30:48;11.82;;;9.32;;
59042;SDS011;44826;51.596;5.624;2023-06-22T05:33:13;12.93;;;9.57;;
59042;SDS011;44826;51.596;5.624;2023-06-22T05:35:38;15.23;;;10.18;;
59042;SDS011;44826;51.596;5.624;2023-06-22T05:38:03;12.15;;;9.77;;
59042;SDS011;44826;51.596;5.624;2023-06-22T05:40:29;11.27;;;9.30;;
59042;SDS011;44826;51.596;5.624;2023-06-22T05:42:54;14.68;;;10.20;;
59042;SDS011;44826;51.596;5.624;2023-06-22T05:45:19;12.82;;;9.90;;
59042;SDS011;44826;51.596;5.624;2023-06-22T05:47:44;13.60;;;9.77;;
59042;SDS011;44826;51.596;5.624;2023-06-22T05:50:10;13.02;;;9.20;;
59042;SDS011;44826;51.596;5.624;2023-06-22T05:52:35;12.68;;;9.88;;
59042;SDS011;44826;51.596;5.624;2023-06-22T05:55:01;15.55;;;10.40;;
59042;SDS011;44826;51.596;5.624;2023-06-22T05:57:27;12.40;;;10.35;;
59042;SDS011;44826;51.596;5.624;2023-06-22T05:59:52;12.45;;;9.40;;
59042;SDS011;44826;51.596;5.624;2023-06-22T06:02:18;12.38;;;10.18;;
59042;SDS011;44826;51.596;5.624;2023-06-22T06:04:44;13.68;;;10.38;;
59042;SDS011;44826;51.596;5.624;2023-06-22T06:07:10;13.65;;;10.50;;
59042;SDS011;44826;51.596;5.624;2023-06-22T06:09:36;14.70;;;10.82;;
59042;SDS011;44826;51.596;5.624;2023-06-22T06:12:01;15.77;;;11.27;;
59042;SDS011;44826;51.596;5.624;2023-06-22T06:14:28;13.98;;;11.52;;
59042;SDS011;44826;51.596;5.624;2023-06-22T06:16:53;14.68;;;11.35;;
59042;SDS011;44826;51.596;5.624;2023-06-22T06:19:18;14.50;;;11.73;;
59042;SDS011;44826;51.596;5.624;2023-06-22T06:21:44;13.77;;;11.40;;
59042;SDS011;44826;51.596;5.624;2023-06-22T06:24:09;14.40;;;11.85;;
59042;SDS011;44826;51.596;5.624;2023-06-22T06:26:34;13.00;;;10.63;;
59042;SDS011;44826;51.596;5.624;2023-06-22T06:29:00;12.10;;;10.18;;
59042;SDS011;44826;51.596;5.624;2023-06-22T06:31:27;15.63;;;12.20;;
59042;SDS011;44826;51.596;5.624;2023-06-22T06:33:53;14.35;;;12.15;;
59042;SDS011;44826;51.596;5.624;2023-06-22T06:36:19;16.85;;;11.93;;
59042;SDS011;44826;51.596;5.624;2023-06-22T06:38:44;13.70;;;11.55;;
59042;SDS011;44826;51.596;5.624;2023-06-22T06:41:09;15.48;;;11.20;;
59042;SDS011;44826;51.596;5.624;2023-06-22T06:43:35;14.30;;;11.23;;
59042;SDS011;44826;51.596;5.624;2023-06-22T06:46:00;13.88;;;10.82;;
59042;SDS011;44826;51.596;5.624;2023-06-22T06:48:25;13.13;;;11.45;;
59042;SDS011;44826;51.596;5.624;2023-06-22T06:50:50;15.32;;;11.82;;
59042;SDS011;44826;51.596;5.624;2023-06-22T06:53:16;15.77;;;12.18;;
59042;SDS011;44826;51.596;5.624;2023-06-22T06:55:41;16.50;;;12.57;;
59042;SDS011;44826;51.596;5.624;2023-06-22T06:58:06;14.25;;;11.55;;
59042;SDS011;44826;51.596;5.624;2023-06-22T07:00:33;15.23;;;10.98;;
59042;SDS011;44826;51.596;5.624;2023-06-22T07:02:58;13.52;;;11.88;;
59042;SDS011;44826;51.596;5.624;2023-06-22T07:05:24;13.93;;;11.80;;
59042;SDS011;44826;51.596;5.624;2023-06-22T07:07:49;14.57;;;12.07;;
59042;SDS011;44826;51.596;5.624;2023-06-22T07:10:14;14.77;;;11.52;;
59042;SDS011;44826;51.596;5.624;2023-06-22T07:12:40;12.73;;;10.60;;
59042;SDS011;44826;51.596;5.624;2023-06-22T07:15:09;15.13;;;11.48;;
59042;SDS011;44826;51.596;5.624;2023-06-22T07:17:37;14.80;;;11.70;;
59042;SDS011;44826;51.596;5.624;2023-06-22T07:20:06;13.63;;;11.82;;
59042;SDS011;44826;51.596;5.624;2023-06-22T07:22:36;14.00;;;11.93;;
59042;SDS011;44826;51.596;5.624;2023-06-22T07:25:02;15.73;;;11.65;;
59042;SDS011;44826;51.596;5.624;2023-06-22T07:27:35;13.55;;;11.40;;
59042;SDS011;44826;51.596;5.624;2023-06-22T07:30:08;16.05;;;12.05;;
59042;SDS011;44826;51.596;5.624;2023-06-22T07:32:33;15.60;;;12.13;;
59042;SDS011;44826;51.596;5.624;2023-06-22T07:34:59;17.27;;;11.85;;
59042;SDS011;44826;51.596;5.624;2023-06-22T07:37:24;17.17;;;12.02;;
59042;SDS011;44826;51.596;5.624;2023-06-22T07:39:49;16.48;;;12.43;;
59042;SDS011;44826;51.596;5.624;2023-06-22T07:42:18;15.95;;;11.88;;
59042;SDS011;44826;51.596;5.624;2023-06-22T07:44:44;14.52;;;12.30;;
59042;SDS011;44826;51.596;5.624;2023-06-22T07:47:09;16.25;;;12.52;;
59042;SDS011;44826;51.596;5.624;2023-06-22T07:49:34;14.27;;;11.98;;
59042;SDS011;44826;51.596;5.624;2023-06-22T07:52:00;14.20;;;11.50;;
59042;SDS011;44826;51.596;5.624;2023-06-22T07:54:26;16.13;;;12.57;;
59042;SDS011;44826;51.596;5.624;2023-06-22T07:56:51;14.98;;;11.52;;
59042;SDS011;44826;51.596;5.624;2023-06-22T07:59:18;15.07;;;11.60;;
59042;SDS011;44826;51.596;5.624;2023-06-22T08:01:43;15.25;;;10.02;;
59042;SDS011;44826;51.596;5.624;2023-06-22T08:04:08;13.95;;;11.43;;
59042;SDS011;44826;51.596;5.624;2023-06-22T08:06:34;13.15;;;11.27;;
59042;SDS011;44826;51.596;5.624;2023-06-22T08:08:59;15.07;;;11.35;;
59042;SDS011;44826;51.596;5.624;2023-06-22T08:11:24;12.98;;;10.40;;
59042;SDS011;44826;51.596;5.624;2023-06-22T08:13:50;13.02;;;10.10;;
59042;SDS011;44826;51.596;5.624;2023-06-22T08:16:15;10.23;;;8.32;;
59042;SDS011;44826;51.596;5.624;2023-06-22T08:18:41;10.48;;;7.85;;
59042;SDS011;44826;51.596;5.624;2023-06-22T08:21:06;10.13;;;8.00;;
59042;SDS011;44826;51.596;5.624;2023-06-22T08:23:31;10.10;;;8.32;;
59042;SDS011;44826;51.596;5.624;2023-06-22T08:25:57;10.75;;;9.23;;
59042;SDS011;44826;51.596;5.624;2023-06-22T08:28:22;9.93;;;7.75;;
59042;SDS011;44826;51.596;5.624;2023-06-22T08:30:47;11.20;;;8.55;;
59042;SDS011;44826;51.596;5.624;2023-06-22T08:33:13;9.32;;;8.32;;
59042;SDS011;44826;51.596;5.624;2023-06-22T08:35:38;11.32;;;8.15;;
59042;SDS011;44826;51.596;5.624;2023-06-22T08:38:03;11.80;;;8.15;;
59042;SDS011;44826;51.596;5.624;2023-06-22T08:40:29;10.10;;;8.13;;
59042;SDS011;44826;51.596;5.624;2023-06-22T08:42:54;8.88;;;7.70;;
59042;SDS011;44826;51.596;5.624;2023-06-22T08:45:19;11.73;;;7.53;;
59042;SDS011;44826;51.596;5.624;2023-06-22T08:47:45;11.13;;;8.38;;
59042;SDS011;44826;51.596;5.624;2023-06-22T08:50:10;10.23;;;7.45;;
59042;SDS011;44826;51.596;5.624;2023-06-22T08:52:37;9.70;;;8.02;;
59042;SDS011;44826;51.596;5.624;2023-06-22T08:55:05;11.05;;;8.43;;
59042;SDS011;44826;51.596;5.624;2023-06-22T08:57:31;8.90;;;7.75;;
59042;SDS011;44826;51.596;5.624;2023-06-22T08:59:57;14.73;;;9.27;;
59042;SDS011;44826;51.596;5.624;2023-06-22T09:02:23;10.40;;;7.95;;
59042;SDS011;44826;51.596;5.624;2023-06-22T09:04:49;12.10;;;8.80;;
59042;SDS011;44826;51.596;5.624;2023-06-22T09:07:21;10.02;;;8.20;;
59042;SDS011;44826;51.596;5.624;2023-06-22T09:09:48;10.88;;;8.55;;
59042;SDS011;44826;51.596;5.624;2023-06-22T09:12:14;10.00;;;7.25;;
59042;SDS011;44826;51.596;5.624;2023-06-22T09:14:39;8.43;;;7.10;;
59042;SDS011;44826;51.596;5.624;2023-06-22T09:17:04;10.77;;;7.47;;
59042;SDS011;44826;51.596;5.624;2023-06-22T09:19:30;10.60;;;8.13;;
59042;SDS011;44826;51.596;5.624;2023-06-22T09:21:55;10.38;;;7.93;;
59042;SDS011;44826;51.596;5.624;2023-06-22T09:24:20;8.95;;;7.65;;
59042;SDS011;44826;51.596;5.624;2023-06-22T09:26:45;8.95;;;7.30;;
59042;SDS011;44826;51.596;5.624;2023-06-22T09:29:11;9.55;;;7.40;;
59042;SDS011;44826;51.596;5.624;2023-06-22T09:31:36;11.32;;;8.13;;
59042;SDS011;44826;51.596;5.624;2023-06-22T09:34:01;9.52;;;7.40;;
59042;SDS011;44826;51.596;5.624;2023-06-22T09:36:27;8.93;;;7.75;;
59042;SDS011;44826;51.596;5.624;2023-06-22T09:38:52;12.05;;;8.35;;
59042;SDS011;44826;51.596;5.624;2023-06-22T09:41:20;9.05;;;7.40;;
59042;SDS011;44826;51.596;5.624;2023-06-22T09:43:46;11.15;;;8.13;;
59042;SDS011;44826;51.596;5.624;2023-06-22T09:46:14;11.18;;;7.78;;
59042;SDS011;44826;51.596;5.624;2023-06-22T09:48:40;8.43;;;7.20;;
59042;SDS011;44826;51.596;5.624;2023-06-22T09:51:05;9.15;;;7.13;;
59042;SDS011;44826;51.596;5.624;2023-06-22T09:53:30;9.18;;;7.57;;
59042;SDS011;44826;51.596;5.624;2023-06-22T09:55:56;9.55;;;7.30;;
59042;SDS011;44826;51.596;5.624;2023-06-22T09:58:22;11.23;;;7.85;;
59042;SDS011;44826;51.596;5.624;2023-06-22T10:00:47;12.35;;;7.93;;
59042;SDS011;44826;51.596;5.624;2023-06-22T10:03:12;11.43;;;7.32;;
59042;SDS011;44826;51.596;5.624;2023-06-22T10:05:38;8.50;;;6.85;;
59042;SDS011;44826;51.596;5.624;2023-06-22T10:08:03;12.32;;;7.72;;
59042;SDS011;44826;51.596;5.624;2023-06-22T10:10:28;9.52;;;7.43;;
59042;SDS011;44826;51.596;5.624;2023-06-22T10:12:57;9.75;;;7.18;;
59042;SDS011;44826;51.596;5.624;2023-06-22T10:15:27;10.40;;;7.82;;
59042;SDS011;44826;51.596;5.624;2023-06-22T10:17:53;8.45;;;7.05;;
59042;SDS011;44826;51.596;5.624;2023-06-22T10:20:18;9.02;;;7.45;;
59042;SDS011;44826;51.596;5.624;2023-06-22T10:22:44;12.73;;;7.75;;
59042;SDS011;44826;51.596;5.624;2023-06-22T10:25:10;10.18;;;7.40;;
59042;SDS011;44826;51.596;5.624;2023-06-22T10:27:37;9.07;;;7.60;;
59042;SDS011;44826;51.596;5.624;2023-06-22T10:30:05;10.27;;;7.68;;
59042;SDS011;44826;51.596;5.624;2023-06-22T10:32:31;10.35;;;7.97;;
59042;SDS011;44826;51.596;5.624;2023-06-22T10:34:57;10.88;;;7.28;;
59042;SDS011;44826;51.596;5.624;2023-06-22T10:37:22;9.93;;;7.53;;
59042;SDS011;44826;51.596;5.624;2023-06-22T10:39:47;9.68;;;7.95;;
59042;SDS011;44826;51.596;5.624;2023-06-22T10:42:13;10.40;;;8.30;;
59042;SDS011;44826;51.596;5.624;2023-06-22T10:44:38;9.40;;;7.68;;
59042;SDS011;44826;51.596;5.624;2023-06-22T10:47:06;11.38;;;7.88;;
59042;SDS011;44826;51.596;5.624;2023-06-22T10:49:31;8.55;;;7.18;;
59042;SDS011;44826;51.596;5.624;2023-06-22T10:51:57;8.60;;;7.38;;
59042;SDS011;44826;51.596;5.624;2023-06-22T10:54:22;9.10;;;7.55;;
59042;SDS011;44826;51.596;5.624;2023-06-22T10:56:47;8.43;;;7.20;;
59042;SDS011;44826;51.596;5.624;2023-06-22T10:59:13;11.48;;;6.95;;
59042;SDS011;44826;51.596;5.624;2023-06-22T11:01:38;10.20;;;7.95;;
59042;SDS011;44826;51.596;5.624;2023-06-22T11:04:03;9.05;;;7.65;;
59042;SDS011;44826;51.596;5.624;2023-06-22T11:06:29;10.02;;;7.78;;
59042;SDS011;44826;51.596;5.624;2023-06-22T11:08:54;8.40;;;7.47;;
59042;SDS011;44826;51.596;5.624;2023-06-22T11:11:20;9.00;;;7.05;;
59042;SDS011;44826;51.596;5.624;2023-06-22T11:13:45;9.85;;;7.47;;
59042;SDS011;44826;51.596;5.624;2023-06-22T11:16:10;9.88;;;8.30;;
59042;SDS011;44826;51.596;5.624;2023-06-22T11:18:36;10.45;;;8.63;;
59042;SDS011;44826;51.596;5.624;2023-06-22T11:21:01;10.02;;;8.38;;
59042;SDS011;44826;51.596;5.624;2023-06-22T11:23:27;13.13;;;9.88;;
59042;SDS011;44826;51.596;5.624;2023-06-22T11:25:53;12.30;;;10.45;;
59042;SDS011;44826;51.596;5.624;2023-06-22T11:28:19;13.65;;;11.27;;
59042;SDS011;44826;51.596;5.624;2023-06-22T11:30:44;17.85;;;12.02;;
59042;SDS011;44826;51.596;5.624;2023-06-22T11:33:09;14.77;;;11.88;;
59042;SDS011;44826;51.596;5.624;2023-06-22T11:35:34;18.45;;;12.90;;
59042;SDS011;44826;51.596;5.624;2023-06-22T11:38:00;13.75;;;11.38;;
59042;SDS011;44826;51.596;5.624;2023-06-22T11:40:25;15.63;;;11.93;;
59042;SDS011;44826;51.596;5.624;2023-06-22T11:42:51;16.52;;;12.95;;
59042;SDS011;44826;51.596;5.624;2023-06-22T11:45:16;17.50;;;13.25;;
59042;SDS011;44826;51.596;5.624;2023-06-22T11:47:43;18.80;;;13.65;;
59042;SDS011;44826;51.596;5.624;2023-06-22T11:50:08;15.20;;;12.63;;
59042;SDS011;44826;51.596;5.624;2023-06-22T11:52:33;18.33;;;13.23;;
59042;SDS011;44826;51.596;5.624;2023-06-22T11:55:00;16.38;;;13.18;;
59042;SDS011;44826;51.596;5.624;2023-06-22T11:57:28;15.27;;;12.15;;
59042;SDS011;44826;51.596;5.624;2023-06-22T11:59:53;13.85;;;10.98;;
59042;SDS011;44826;51.596;5.624;2023-06-22T12:02:19;13.02;;;10.95;;
59042;SDS011;44826;51.596;5.624;2023-06-22T12:04:44;15.32;;;12.38;;
59042;SDS011;44826;51.596;5.624;2023-06-22T12:07:09;17.00;;;13.20;;
59042;SDS011;44826;51.596;5.624;2023-06-22T12:09:34;16.30;;;13.10;;
59042;SDS011;44826;51.596;5.624;2023-06-22T12:12:00;16.42;;;13.90;;
59042;SDS011;44826;51.596;5.624;2023-06-22T12:14:25;15.85;;;13.35;;
59042;SDS011;44826;51.596;5.624;2023-06-22T12:16:50;16.13;;;13.77;;
59042;SDS011;44826;51.596;5.624;2023-06-22T12:19:15;15.02;;;12.98;;
59042;SDS011;44826;51.596;5.624;2023-06-22T12:21:41;15.02;;;11.90;;
59042;SDS011;44826;51.596;5.624;2023-06-22T12:24:06;14.15;;;11.50;;
59042;SDS011;44826;51.596;5.624;2023-06-22T12:26:31;13.70;;;11.07;;
59042;SDS011;44826;51.596;5.624;2023-06-22T12:28:57;16.42;;;11.90;;
59042;SDS011;44826;51.596;5.624;2023-06-22T12:31:22;14.93;;;12.30;;
59042;SDS011;44826;51.596;5.624;2023-06-22T12:33:47;15.13;;;11.68;;
59042;SDS011;44826;51.596;5.624;2023-06-22T12:36:13;14.27;;;11.52;;
59042;SDS011;44826;51.596;5.624;2023-06-22T12:38:38;13.48;;;11.70;;
59042;SDS011;44826;51.596;5.624;2023-06-22T12:41:03;13.70;;;11.70;;
59042;SDS011;44826;51.596;5.624;2023-06-22T12:43:28;13.70;;;12.23;;
59042;SDS011;44826;51.596;5.624;2023-06-22T12:45:54;13.93;;;11.95;;
59042;SDS011;44826;51.596;5.624;2023-06-22T12:48:19;16.90;;;12.32;;
59042;SDS011;44826;51.596;5.624;2023-06-22T12:50:45;14.05;;;11.23;;
59042;SDS011;44826;51.596;5.624;2023-06-22T12:53:11;13.00;;;11.55;;
59042;SDS011;44826;51.596;5.624;2023-06-22T12:55:37;14.18;;;11.27;;
59042;SDS011;44826;51.596;5.624;2023-06-22T12:58:02;13.60;;;11.32;;
59042;SDS011;44826;51.596;5.624;2023-06-22T13:00:28;12.52;;;10.65;;
59042;SDS011;44826;51.596;5.624;2023-06-22T13:02:53;13.27;;;11.52;;
59042;SDS011;44826;51.596;5.624;2023-06-22T13:05:18;12.35;;;11.02;;
59042;SDS011;44826;51.596;5.624;2023-06-22T13:07:43;12.40;;;10.02;;
59042;SDS011;44826;51.596;5.624;2023-06-22T13:10:10;12.90;;;10.63;;
59042;SDS011;44826;51.596;5.624;2023-06-22T13:12:35;11.20;;;10.00;;
59042;SDS011;44826;51.596;5.624;2023-06-22T13:15:01;13.02;;;11.63;;
59042;SDS011;44826;51.596;5.624;2023-06-22T13:17:28;13.48;;;11.50;;
59042;SDS011;44826;51.596;5.624;2023-06-22T13:19:53;13.63;;;10.38;;
59042;SDS011;44826;51.596;5.624;2023-06-22T13:22:28;12.15;;;10.25;;
59042;SDS011;44826;51.596;5.624;2023-06-22T13:24:54;10.93;;;9.57;;
59042;SDS011;44826;51.596;5.624;2023-06-22T13:27:19;13.93;;;10.50;;
59042;SDS011;44826;51.596;5.624;2023-06-22T13:29:45;11.40;;;9.82;;
59042;SDS011;44826;51.596;5.624;2023-06-22T13:32:10;13.55;;;10.27;;
59042;SDS011;44826;51.596;5.624;2023-06-22T13:34:35;12.32;;;10.00;;
59042;SDS011;44826;51.596;5.624;2023-06-22T13:37:00;11.75;;;9.90;;
59042;SDS011;44826;51.596;5.624;2023-06-22T13:39:26;14.23;;;10.13;;
59042;SDS011;44826;51.596;5.624;2023-06-22T13:41:51;12.35;;;10.63;;
59042;SDS011;44826;51.596;5.624;2023-06-22T13:44:16;13.25;;;10.10;;
59042;SDS011;44826;51.596;5.624;2023-06-22T13:46:41;11.55;;;10.35;;
59042;SDS011;44826;51.596;5.624;2023-06-22T13:49:07;11.68;;;9.98;;
59042;SDS011;44826;51.596;5.624;2023-06-22T13:51:32;11.73;;;10.35;;
59042;SDS011;44826;51.596;5.624;2023-06-22T13:53:58;12.18;;;9.65;;
59042;SDS011;44826;51.596;5.624;2023-06-22T13:56:23;12.07;;;10.35;;
59042;SDS011;44826;51.596;5.624;2023-06-22T13:58:48;12.35;;;11.02;;
59042;SDS011;44826;51.596;5.624;2023-06-22T14:01:13;13.05;;;10.70;;
59042;SDS011;44826;51.596;5.624;2023-06-22T14:03:39;11.60;;;9.85;;
59042;SDS011;44826;51.596;5.624;2023-06-22T14:06:04;12.43;;;11.13;;
59042;SDS011;44826;51.596;5.624;2023-06-22T14:08:29;12.30;;;10.02;;
59042;SDS011;44826;51.596;5.624;2023-06-22T14:10:55;11.82;;;9.45;;
59042;SDS011;44826;51.596;5.624;2023-06-22T14:13:20;10.35;;;9.27;;
59042;SDS011;44826;51.596;5.624;2023-06-22T14:15:45;11.07;;;8.93;;
59042;SDS011;44826;51.596;5.624;2023-06-22T14:18:13;10.52;;;8.65;;
59042;SDS011;44826;51.596;5.624;2023-06-22T14:20:39;10.00;;;8.70;;
59042;SDS011;44826;51.596;5.624;2023-06-22T14:23:05;12.57;;;9.18;;
59042;SDS011;44826;51.596;5.624;2023-06-22T14:25:30;19.08;;;9.95;;
59042;SDS011;44826;51.596;5.624;2023-06-22T14:27:56;10.23;;;9.13;;
59042;SDS011;44826;51.596;5.624;2023-06-22T14:30:21;10.57;;;9.40;;
59042;SDS011;44826;51.596;5.624;2023-06-22T14:32:46;12.40;;;9.68;;
59042;SDS011;44826;51.596;5.624;2023-06-22T14:35:11;14.18;;;10.70;;